createdAt,value
2017-11-15T00:00:50.244Z,13.70
2017-11-15T00:03:17.682Z,14.00
2017-11-15T00:05:44.433Z,13.20
2017-11-15T00:08:11.124Z,12.77
2017-11-15T00:10:38.506Z,12.80
2017-11-15T00:13:05.991Z,13.40
2017-11-15T00:15:32.674Z,12.95
2017-11-15T00:17:59.338Z,11.70
2017-11-15T00:20:26.028Z,11.93
2017-11-15T00:22:52.715Z,11.85
2017-11-15T00:25:19.413Z,11.98
2017-11-15T00:27:46.084Z,13.02
2017-11-15T00:30:13.491Z,12.80
2017-11-15T00:32:40.190Z,11.32
2017-11-15T00:35:07.164Z,12.13
2017-11-15T00:37:33.950Z,11.45
2017-11-15T00:40:00.731Z,10.18
2017-11-15T00:42:27.487Z,11.43
2017-11-15T00:44:54.181Z,11.15
2017-11-15T00:47:20.933Z,11.12
2017-11-15T00:49:47.730Z,11.65
2017-11-15T00:52:15.047Z,12.70
2017-11-15T00:54:42.520Z,14.02
2017-11-15T00:57:09.956Z,13.82
2017-11-15T00:59:36.628Z,14.20
2017-11-15T01:02:04.027Z,14.32
2017-11-15T01:04:30.723Z,12.50
2017-11-15T01:06:58.169Z,13.65
2017-11-15T01:09:24.821Z,15.23
2017-11-15T01:11:52.247Z,13.40
2017-11-15T01:14:19.297Z,13.35
2017-11-15T01:16:46.911Z,14.10
2017-11-15T01:19:14.347Z,14.05
2017-11-15T01:21:41.084Z,14.48
2017-11-15T01:24:07.743Z,15.77
2017-11-15T01:26:35.184Z,14.05
2017-11-15T01:29:02.932Z,12.70
2017-11-15T01:31:29.599Z,13.20
2017-11-15T01:33:56.291Z,15.30
2017-11-15T01:36:23.000Z,15.20
2017-11-15T01:38:50.439Z,15.60
2017-11-15T01:41:17.144Z,14.07
2017-11-15T01:43:43.908Z,14.38
2017-11-15T01:46:10.634Z,16.12
2017-11-15T01:48:37.359Z,14.93
2017-11-15T01:51:05.180Z,14.87
2017-11-15T01:53:31.914Z,16.37
2017-11-15T01:55:58.609Z,16.27
2017-11-15T01:58:26.135Z,15.32
2017-11-15T02:01:11.005Z,18.37
2017-11-15T02:03:37.728Z,17.25
2017-11-15T02:06:04.455Z,19.60
2017-11-15T02:08:31.115Z,17.92
2017-11-15T02:10:57.845Z,19.83
2017-11-15T02:13:24.571Z,27.40
2017-11-15T02:15:51.271Z,25.70
2017-11-15T02:18:17.987Z,21.33
2017-11-15T02:20:45.763Z,19.42
2017-11-15T02:23:12.500Z,19.85
2017-11-15T02:25:39.298Z,25.23
2017-11-15T02:28:07.865Z,22.30
2017-11-15T02:30:34.633Z,20.95
2017-11-15T02:33:02.203Z,17.20
2017-11-15T02:35:29.671Z,17.25
2017-11-15T02:37:56.434Z,16.25
2017-11-15T02:40:23.255Z,17.65
2017-11-15T02:42:50.812Z,16.08
2017-11-15T02:45:18.308Z,13.90
2017-11-15T02:47:45.116Z,13.98
2017-11-15T02:50:12.265Z,14.10
2017-11-15T02:52:39.757Z,13.45
2017-11-15T02:55:06.477Z,16.42
2017-11-15T02:57:34.025Z,15.27
2017-11-15T03:00:00.734Z,16.50
2017-11-15T03:02:27.547Z,15.63
2017-11-15T03:04:54.247Z,15.02
2017-11-15T03:07:20.965Z,13.65
2017-11-15T03:09:47.770Z,14.48
2017-11-15T03:12:15.165Z,13.32
2017-11-15T03:14:41.867Z,13.88
2017-11-15T03:17:09.303Z,13.85
2017-11-15T03:19:35.961Z,11.15
2017-11-15T03:22:03.433Z,12.15
2017-11-15T03:24:30.917Z,13.43
2017-11-15T03:26:57.549Z,13.23
2017-11-15T03:29:24.278Z,12.48
2017-11-15T03:31:51.708Z,11.48
2017-11-15T03:34:18.395Z,11.45
2017-11-15T03:36:46.770Z,12.00
2017-11-15T03:39:14.204Z,11.70
2017-11-15T03:41:40.977Z,10.80
2017-11-15T03:44:07.661Z,11.25
2017-11-15T03:46:34.356Z,12.50
2017-11-15T03:49:01.767Z,12.20
2017-11-15T03:51:28.439Z,12.68
2017-11-15T03:53:55.131Z,11.02
2017-11-15T03:56:21.806Z,10.55
2017-11-15T03:58:48.472Z,12.30
2017-11-15T04:01:15.897Z,12.05
2017-11-15T04:03:42.550Z,12.95
2017-11-15T04:06:09.227Z,12.25
2017-11-15T04:08:36.709Z,11.60
2017-11-15T04:11:04.156Z,12.18
2017-11-15T04:13:31.562Z,12.55
2017-11-15T04:15:58.240Z,13.43
2017-11-15T04:18:24.923Z,12.45
2017-11-15T04:20:52.029Z,11.35
2017-11-15T04:23:18.751Z,11.75
2017-11-15T04:25:46.166Z,11.30
2017-11-15T04:28:12.843Z,12.52
2017-11-15T04:30:39.523Z,12.23
2017-11-15T04:33:06.299Z,11.93
2017-11-15T04:35:33.006Z,11.75
2017-11-15T04:38:00.060Z,12.37
2017-11-15T04:40:26.736Z,12.60
2017-11-15T04:42:54.269Z,12.23
2017-11-15T04:45:21.004Z,12.40
2017-11-15T04:47:47.723Z,12.02
2017-11-15T04:50:15.141Z,11.10
2017-11-15T04:52:42.569Z,12.07
2017-11-15T04:55:09.227Z,10.40
2017-11-15T04:57:36.662Z,10.10
2017-11-15T05:00:03.716Z,10.50
2017-11-15T05:02:30.386Z,10.05
2017-11-15T05:04:57.781Z,9.52
2017-11-15T05:07:24.453Z,10.02
2017-11-15T05:09:51.140Z,9.25
2017-11-15T05:12:17.818Z,10.68
2017-11-15T05:14:44.502Z,11.15
2017-11-15T05:17:11.161Z,10.68
2017-11-15T05:19:38.666Z,10.57
2017-11-15T05:22:05.460Z,10.88
2017-11-15T05:24:32.922Z,11.02
2017-11-15T05:27:00.366Z,9.98
2017-11-15T05:29:27.116Z,10.30
2017-11-15T05:31:53.898Z,12.57
2017-11-15T05:34:20.547Z,10.45
2017-11-15T05:36:47.243Z,13.27
2017-11-15T05:39:14.938Z,12.15
2017-11-15T05:41:42.327Z,12.45
2017-11-15T05:44:09.032Z,14.32
2017-11-15T05:46:36.428Z,13.75
2017-11-15T05:49:03.119Z,12.05
2017-11-15T05:51:29.848Z,13.77
2017-11-15T05:53:56.623Z,12.40
2017-11-15T05:56:24.106Z,13.30
2017-11-15T05:58:50.802Z,13.50
2017-11-15T06:01:17.468Z,14.10
2017-11-15T06:03:44.895Z,13.73
2017-11-15T06:06:11.599Z,14.95
2017-11-15T06:08:39.191Z,14.82
2017-11-15T06:11:05.940Z,12.55
2017-11-15T06:13:33.371Z,12.15
2017-11-15T06:15:59.995Z,12.55
2017-11-15T06:18:26.704Z,13.30
2017-11-15T06:20:53.369Z,12.52
2017-11-15T06:23:20.845Z,12.40
2017-11-15T06:25:47.613Z,13.95
2017-11-15T06:28:14.972Z,13.48
2017-11-15T06:30:41.718Z,14.43
2017-11-15T06:33:08.364Z,13.00
2017-11-15T06:35:35.048Z,14.93
2017-11-15T06:38:01.715Z,10.68
2017-11-15T06:40:28.374Z,9.82
2017-11-15T06:42:55.054Z,10.80
2017-11-15T06:45:21.722Z,10.03
2017-11-15T06:47:48.351Z,9.87
2017-11-15T06:50:15.048Z,9.50
2017-11-15T06:52:41.694Z,11.63
2017-11-15T06:55:08.399Z,9.50
2017-11-15T06:57:35.076Z,9.60
2017-11-15T07:00:01.740Z,10.48
2017-11-15T07:02:28.428Z,10.40
2017-11-15T07:04:55.151Z,11.73
2017-11-15T07:07:24.736Z,12.27
2017-11-15T07:09:51.525Z,12.20
2017-11-15T07:12:18.211Z,13.60
2017-11-15T07:14:44.885Z,15.00
2017-11-15T07:17:11.581Z,14.47
2017-11-15T07:19:38.274Z,15.30
2017-11-15T07:22:04.968Z,15.83
2017-11-15T07:24:31.608Z,15.90
2017-11-15T07:26:58.272Z,14.10
2017-11-15T07:29:24.896Z,14.70
2017-11-15T07:31:51.552Z,13.90
2017-11-15T07:34:18.228Z,15.23
2017-11-15T07:36:44.892Z,14.23
2017-11-15T07:39:11.542Z,13.70
2017-11-15T07:41:38.973Z,14.40
2017-11-15T07:44:05.625Z,13.07
2017-11-15T07:46:32.313Z,13.70
2017-11-15T07:48:59.032Z,12.17
2017-11-15T07:51:26.436Z,14.07
2017-11-15T07:53:53.151Z,12.40
2017-11-15T07:56:19.836Z,15.80
2017-11-15T07:58:46.540Z,17.27
2017-11-15T08:01:13.189Z,16.80
2017-11-15T08:03:39.894Z,15.50
2017-11-15T08:06:06.579Z,15.70
2017-11-15T08:08:33.257Z,15.07
2017-11-15T08:11:00.098Z,16.67
2017-11-15T08:13:26.772Z,14.60
2017-11-15T08:15:54.190Z,14.13
2017-11-15T08:18:20.884Z,15.30
2017-11-15T08:20:48.314Z,14.17
2017-11-15T08:23:14.986Z,14.13
2017-11-15T08:25:42.428Z,15.20
2017-11-15T08:28:09.135Z,13.63
2017-11-15T08:30:35.838Z,14.30
2017-11-15T08:33:03.312Z,13.20
2017-11-15T08:35:29.992Z,12.40
2017-11-15T08:37:56.720Z,14.33
2017-11-15T08:40:23.454Z,14.27
2017-11-15T08:42:50.136Z,13.80
2017-11-15T08:45:16.864Z,15.10
2017-11-15T08:47:43.590Z,14.53
2017-11-15T08:50:10.320Z,14.23
2017-11-15T08:52:37.079Z,14.93
2017-11-15T08:55:03.860Z,14.90
2017-11-15T08:57:30.590Z,14.53
2017-11-15T08:59:57.300Z,14.83
2017-11-15T09:02:24.009Z,15.57
2017-11-15T09:04:50.694Z,14.40
2017-11-15T09:07:18.019Z,13.23
2017-11-15T09:09:44.782Z,14.10
2017-11-15T09:12:11.484Z,13.30
2017-11-15T09:14:38.190Z,16.60
2017-11-15T09:17:05.676Z,15.83
2017-11-15T09:19:32.348Z,16.50
2017-11-15T09:21:59.049Z,17.07
2017-11-15T09:24:25.716Z,15.93
2017-11-15T09:26:52.416Z,16.57
2017-11-15T09:29:19.156Z,15.30
2017-11-15T09:31:45.856Z,16.57
2017-11-15T09:34:12.527Z,16.63
2017-11-15T09:36:40.018Z,16.70
2017-11-15T09:39:07.751Z,18.13
2017-11-15T09:41:35.211Z,16.37
2017-11-15T09:44:02.703Z,18.40
2017-11-15T09:46:30.396Z,19.03
2017-11-15T09:48:57.042Z,17.30
2017-11-15T09:51:23.793Z,18.73
2017-11-15T09:53:50.493Z,17.77
2017-11-15T09:56:17.184Z,17.87
2017-11-15T09:58:43.845Z,19.80
2017-11-15T10:01:10.585Z,18.33
2017-11-15T10:03:37.261Z,19.83
2017-11-15T10:06:03.932Z,21.43
2017-11-15T10:08:31.386Z,20.40
2017-11-15T10:10:58.054Z,19.80
2017-11-15T10:13:25.626Z,19.37
2017-11-15T10:15:52.355Z,17.83
2017-11-15T10:18:19.059Z,18.57
2017-11-15T10:20:45.741Z,19.53
2017-11-15T10:23:12.421Z,18.50
2017-11-15T10:25:39.857Z,20.43
2017-11-15T10:28:06.530Z,20.63
2017-11-15T10:30:33.964Z,19.30
2017-11-15T10:33:00.639Z,19.00
2017-11-15T10:35:28.055Z,19.80
2017-11-15T10:37:54.745Z,20.33
2017-11-15T10:40:22.181Z,18.20
2017-11-15T10:42:48.833Z,18.47
2017-11-15T10:45:16.304Z,18.77
2017-11-15T10:47:45.706Z,19.90
2017-11-15T10:50:13.117Z,17.87
2017-11-15T10:52:39.829Z,20.30
2017-11-15T10:55:06.495Z,16.87
2017-11-15T10:57:33.163Z,18.00
2017-11-15T10:59:59.994Z,18.43
2017-11-15T11:02:26.719Z,14.80
2017-11-15T11:04:53.479Z,16.87
2017-11-15T11:07:20.225Z,14.77
2017-11-15T11:09:46.925Z,13.87
2017-11-15T11:12:13.598Z,13.23
2017-11-15T11:14:41.254Z,13.90
2017-11-15T11:17:07.948Z,11.90
2017-11-15T11:19:34.632Z,11.70
2017-11-15T11:22:01.361Z,12.50
2017-11-15T11:24:28.857Z,9.90
2017-11-15T11:26:55.568Z,10.30
2017-11-15T11:29:23.024Z,10.50
2017-11-15T11:31:50.434Z,10.27
2017-11-15T11:34:17.159Z,12.50
2017-11-15T11:36:43.850Z,11.50
2017-11-15T11:39:10.512Z,11.00
2017-11-15T11:41:37.955Z,9.50
2017-11-15T11:44:04.706Z,9.90
2017-11-15T11:46:32.117Z,9.13
2017-11-15T11:48:58.782Z,8.90
2017-11-15T11:51:25.530Z,8.50
2017-11-15T11:53:52.230Z,8.10
2017-11-15T11:56:18.921Z,8.70
2017-11-15T11:58:45.658Z,8.60
2017-11-15T12:01:12.492Z,9.37
2017-11-15T12:03:39.200Z,7.47
2017-11-15T12:06:06.685Z,7.60
2017-11-15T12:08:33.382Z,7.67
2017-11-15T12:11:00.055Z,7.90
2017-11-15T12:13:26.835Z,6.93
2017-11-15T12:15:54.377Z,8.70
2017-11-15T12:18:21.115Z,9.33
2017-11-15T12:20:47.841Z,9.93
2017-11-15T12:23:14.524Z,9.13
2017-11-15T12:25:41.209Z,9.90
2017-11-15T12:28:08.670Z,10.30
2017-11-15T12:30:36.108Z,10.30
2017-11-15T12:33:02.857Z,10.40
2017-11-15T12:35:29.598Z,9.40
2017-11-15T12:37:56.344Z,10.50
2017-11-15T12:40:23.015Z,8.60
2017-11-15T12:42:50.436Z,8.30
2017-11-15T12:45:17.173Z,9.20
2017-11-15T12:47:43.848Z,9.47
2017-11-15T12:50:10.606Z,9.43
2017-11-15T12:52:38.028Z,9.57
2017-11-15T12:55:04.725Z,8.70
2017-11-15T12:57:31.435Z,8.87
2017-11-15T12:59:58.903Z,8.03
2017-11-15T13:02:26.323Z,8.57
2017-11-15T13:04:53.033Z,9.27
2017-11-15T13:07:19.713Z,9.30
2017-11-15T13:09:46.393Z,8.47
2017-11-15T13:12:13.839Z,8.40
2017-11-15T13:14:40.531Z,9.10
2017-11-15T13:17:07.294Z,8.97
2017-11-15T13:19:34.104Z,8.47
2017-11-15T13:22:01.571Z,8.97
2017-11-15T13:24:28.303Z,8.13
2017-11-15T13:26:55.026Z,9.57
2017-11-15T13:29:21.749Z,8.80
2017-11-15T13:31:49.466Z,8.53
2017-11-15T13:34:16.219Z,8.90
2017-11-15T13:36:42.968Z,7.83
2017-11-15T13:39:09.657Z,9.00
2017-11-15T13:41:36.360Z,9.33
2017-11-15T13:44:03.143Z,9.60
2017-11-15T13:46:29.840Z,8.97
2017-11-15T13:48:56.531Z,8.97
2017-11-15T13:51:23.214Z,8.10
2017-11-15T13:53:49.883Z,8.50
2017-11-15T13:56:16.583Z,9.50
2017-11-15T13:58:44.013Z,8.50
2017-11-15T14:01:11.616Z,9.50
2017-11-15T14:03:39.069Z,8.83
2017-11-15T14:06:06.504Z,9.40
2017-11-15T14:08:33.157Z,9.30
2017-11-15T14:11:00.859Z,8.57
2017-11-15T14:13:28.268Z,9.40
2017-11-15T14:15:54.989Z,9.40
2017-11-15T14:18:22.477Z,9.27
2017-11-15T14:20:49.134Z,9.07
2017-11-15T14:23:15.800Z,9.17
2017-11-15T14:25:43.237Z,8.90
2017-11-15T14:28:09.901Z,8.90
2017-11-15T14:30:37.298Z,8.90
2017-11-15T14:33:03.984Z,9.47
2017-11-15T14:35:31.427Z,9.20
2017-11-15T14:37:58.194Z,9.67
2017-11-15T14:40:24.860Z,8.60
2017-11-15T14:42:51.532Z,8.67
2017-11-15T14:45:18.207Z,8.10
2017-11-15T14:47:44.950Z,9.67
2017-11-15T14:50:11.635Z,9.23
2017-11-15T14:52:38.384Z,8.93
2017-11-15T14:55:05.077Z,9.10
2017-11-15T14:57:31.765Z,8.97
2017-11-15T14:59:58.487Z,8.70
2017-11-15T15:02:25.307Z,7.83
2017-11-15T15:04:51.979Z,8.63
2017-11-15T15:07:19.395Z,7.87
2017-11-15T15:09:46.099Z,9.90
2017-11-15T15:12:13.741Z,10.60
2017-11-15T15:14:40.412Z,9.90
2017-11-15T15:17:07.216Z,11.33
2017-11-15T15:19:33.934Z,11.07
2017-11-15T15:22:01.364Z,12.67
2017-11-15T15:24:28.100Z,12.35
2017-11-15T15:26:55.602Z,11.90
2017-11-15T15:29:22.326Z,11.77
2017-11-15T15:31:49.048Z,11.87
2017-11-15T15:34:15.713Z,13.50
2017-11-15T15:36:42.414Z,14.85
2017-11-15T15:39:09.097Z,16.07
2017-11-15T15:41:35.803Z,16.57
2017-11-15T15:44:03.331Z,17.13
2017-11-15T15:46:30.091Z,16.60
2017-11-15T15:48:56.818Z,16.23
2017-11-15T15:51:23.506Z,15.80
2017-11-15T15:53:50.936Z,16.13
2017-11-15T15:56:17.600Z,19.02
2017-11-15T15:58:45.014Z,18.10
2017-11-15T16:01:11.696Z,15.75
2017-11-15T16:03:38.389Z,16.27
2017-11-15T16:06:05.105Z,14.40
2017-11-15T16:08:31.832Z,15.68
2017-11-15T16:10:59.285Z,13.20
2017-11-15T16:13:26.699Z,14.50
2017-11-15T16:15:53.405Z,15.00
2017-11-15T16:18:20.845Z,16.67
2017-11-15T16:20:47.505Z,17.30
2017-11-15T16:23:15.065Z,15.75
2017-11-15T16:25:42.523Z,17.45
2017-11-15T16:28:10.049Z,16.87
2017-11-15T16:30:36.756Z,15.70
2017-11-15T16:33:03.475Z,17.40
2017-11-15T16:35:30.919Z,16.42
2017-11-15T16:37:57.624Z,16.55
2017-11-15T16:40:24.296Z,17.67
2017-11-15T16:42:51.063Z,15.85
2017-11-15T16:45:18.571Z,16.25
2017-11-15T16:47:45.256Z,16.05
2017-11-15T16:50:11.951Z,16.87
2017-11-15T16:52:38.720Z,16.95
2017-11-15T16:55:05.440Z,16.52
2017-11-15T16:57:32.176Z,18.37
2017-11-15T16:59:58.878Z,17.80
2017-11-15T17:02:25.680Z,18.30
2017-11-15T17:04:52.386Z,14.87
2017-11-15T17:07:19.860Z,16.12
2017-11-15T17:09:46.674Z,15.30
2017-11-15T17:12:13.389Z,15.07
2017-11-15T17:14:40.112Z,15.63
2017-11-15T17:17:06.841Z,14.87
2017-11-15T17:19:33.549Z,14.60
2017-11-15T17:22:00.255Z,13.77
2017-11-15T17:24:26.960Z,13.90
2017-11-15T17:26:53.676Z,14.82
2017-11-15T17:29:20.433Z,13.98
2017-11-15T17:31:47.916Z,14.60
2017-11-15T17:34:14.629Z,15.30
2017-11-15T17:36:41.348Z,15.27
2017-11-15T17:39:08.041Z,14.97
2017-11-15T17:41:34.860Z,14.95
2017-11-15T17:44:01.581Z,15.02
2017-11-15T17:46:28.395Z,14.45
2017-11-15T17:48:55.180Z,15.88
2017-11-15T17:51:21.936Z,14.52
2017-11-15T17:53:48.623Z,16.17
2017-11-15T17:56:15.338Z,16.10
2017-11-15T17:58:42.793Z,16.00
2017-11-15T18:01:09.497Z,15.23
2017-11-15T18:03:36.415Z,15.02
2017-11-15T18:06:03.110Z,16.30
2017-11-15T18:08:29.803Z,15.52
2017-11-15T18:10:56.520Z,15.70
2017-11-15T18:13:23.192Z,14.77
2017-11-15T18:15:49.869Z,15.98
2017-11-15T18:18:16.622Z,15.10
2017-11-15T18:20:43.344Z,15.23
2017-11-15T18:23:10.051Z,16.08
2017-11-15T18:25:37.498Z,15.02
2017-11-15T18:28:04.923Z,14.40
2017-11-15T18:30:31.619Z,14.10
2017-11-15T18:32:59.065Z,14.00
2017-11-15T18:35:25.761Z,14.18
2017-11-15T18:37:52.481Z,15.00
2017-11-15T18:40:19.157Z,14.52
2017-11-15T18:42:45.828Z,14.95
2017-11-15T18:45:12.565Z,15.77
2017-11-15T18:47:39.272Z,14.93
2017-11-15T18:50:05.983Z,13.90
2017-11-15T18:52:32.736Z,14.13
2017-11-15T18:54:59.408Z,14.20
2017-11-15T18:57:26.129Z,13.80
2017-11-15T18:59:52.801Z,16.50
2017-11-15T19:02:19.475Z,15.47
2017-11-15T19:04:46.946Z,14.30
2017-11-15T19:07:14.412Z,13.80
2017-11-15T19:09:41.841Z,13.20
2017-11-15T19:12:08.582Z,14.48
2017-11-15T19:14:35.267Z,14.00
2017-11-15T19:17:01.992Z,13.55
2017-11-15T19:19:29.449Z,15.43
2017-11-15T19:21:56.177Z,12.65
2017-11-15T19:24:23.947Z,14.80
2017-11-15T19:26:52.660Z,15.67
2017-11-15T19:29:20.375Z,13.77
2017-11-15T19:31:47.049Z,14.67
2017-11-15T19:34:13.789Z,15.15
2017-11-15T19:36:40.488Z,15.10
2017-11-15T19:39:07.312Z,15.70
2017-11-15T19:41:34.797Z,15.43
2017-11-15T19:44:01.513Z,14.97
2017-11-15T19:46:28.275Z,15.57
2017-11-15T19:48:55.068Z,15.35
2017-11-15T19:51:21.786Z,13.90
2017-11-15T19:53:48.516Z,14.67
2017-11-15T19:56:15.319Z,16.37
2017-11-15T19:58:41.996Z,16.20
2017-11-15T20:01:08.703Z,15.93
2017-11-15T20:03:35.406Z,15.18
2017-11-15T20:06:02.068Z,14.77
2017-11-15T20:08:28.852Z,13.53
2017-11-15T20:10:56.251Z,13.50
2017-11-15T20:13:22.983Z,14.47
2017-11-15T20:15:49.684Z,14.73
2017-11-15T20:18:16.382Z,14.35
2017-11-15T20:20:43.161Z,14.10
2017-11-15T20:23:09.931Z,16.40
2017-11-15T20:25:37.619Z,13.73
2017-11-15T20:28:04.285Z,13.60
2017-11-15T20:30:31.768Z,13.47
2017-11-15T20:32:58.497Z,13.07
2017-11-15T20:35:25.751Z,12.25
2017-11-15T20:37:53.233Z,13.27
2017-11-15T20:40:19.965Z,14.40
2017-11-15T20:42:47.004Z,13.93
2017-11-15T20:45:13.723Z,16.10
2017-11-15T20:47:40.525Z,15.13
2017-11-15T20:50:07.315Z,16.47
2017-11-15T20:52:34.057Z,17.42
2017-11-15T20:55:00.745Z,18.85
2017-11-15T20:57:27.635Z,18.15
2017-11-15T20:59:55.337Z,16.77
2017-11-15T21:02:22.024Z,17.13
2017-11-15T21:04:48.779Z,18.12
2017-11-15T21:07:15.512Z,16.43
2017-11-15T21:09:42.226Z,17.00
2017-11-15T21:12:08.959Z,17.17
2017-11-15T21:14:35.641Z,16.20
2017-11-15T21:17:02.368Z,15.38
2017-11-15T21:19:29.072Z,14.83
2017-11-15T21:21:56.523Z,15.37
2017-11-15T21:24:23.980Z,16.10
2017-11-15T21:26:51.435Z,16.15
2017-11-15T21:29:18.478Z,15.57
2017-11-15T21:31:45.375Z,16.27
2017-11-15T21:34:12.092Z,15.18
2017-11-15T21:36:38.886Z,15.23
2017-11-15T21:39:06.572Z,14.77
2017-11-15T21:41:33.243Z,13.50
2017-11-15T21:44:03.040Z,12.88
2017-11-15T21:46:29.709Z,14.73
2017-11-15T21:48:56.461Z,11.95
2017-11-15T21:51:23.151Z,11.47
2017-11-15T21:53:49.820Z,13.73
2017-11-15T21:56:16.545Z,12.07
2017-11-15T21:58:43.227Z,14.10
2017-11-15T22:01:10.679Z,11.20
2017-11-15T22:03:39.910Z,12.45
2017-11-15T22:18:10.247Z,10.17
2017-11-15T22:28:38.476Z,8.67
2017-11-15T22:34:12.106Z,8.97
2017-11-15T22:36:39.664Z,9.83
2017-11-15T22:39:07.752Z,9.73
2017-11-15T22:41:35.565Z,11.30
2017-11-15T22:44:05.770Z,10.10
2017-11-15T22:49:06.724Z,9.70
2017-11-15T22:51:38.917Z,10.83
2017-11-15T22:54:06.707Z,9.87
2017-11-15T22:56:33.501Z,10.40
2017-11-15T22:59:00.245Z,10.33
2017-11-15T23:01:26.956Z,9.00
2017-11-15T23:03:54.392Z,11.13
2017-11-15T23:06:21.099Z,16.43
2017-11-15T23:08:47.815Z,15.23
2017-11-15T23:11:14.508Z,15.97
2017-11-15T23:13:41.270Z,16.97
2017-11-15T23:16:08.934Z,19.63
2017-11-15T23:18:35.673Z,17.65
2017-11-15T23:21:02.435Z,15.90
2017-11-15T23:23:29.910Z,18.13
2017-11-15T23:25:56.686Z,17.40
2017-11-15T23:28:23.371Z,17.23
2017-11-15T23:30:50.043Z,17.45
2017-11-15T23:33:17.480Z,19.30
2017-11-15T23:35:44.948Z,18.02
2017-11-15T23:38:11.619Z,18.47
2017-11-15T23:40:38.811Z,19.70
2017-11-15T23:43:05.496Z,19.90
2017-11-15T23:45:33.095Z,18.73
2017-11-15T23:47:59.764Z,19.73
2017-11-15T23:50:26.491Z,19.90
2017-11-15T23:52:53.348Z,19.73
2017-11-15T23:55:20.019Z,19.37
2017-11-15T23:57:46.862Z,19.23
